createdAt,value
2022-12-01T00:00:11.846Z,598.00
2022-12-01T00:00:41.969Z,599.00
2022-12-01T00:01:11.967Z,602.00
2022-12-01T00:01:42.146Z,602.00
2022-12-01T00:02:12.222Z,601.00
2022-12-01T00:02:42.222Z,599.00
2022-12-01T00:03:12.403Z,598.00
2022-12-01T00:03:42.360Z,598.00
2022-12-01T00:04:12.401Z,597.00
2022-12-01T00:04:42.400Z,597.00
2022-12-01T00:05:12.386Z,597.00
2022-12-01T00:05:42.516Z,597.00
2022-12-01T00:06:12.512Z,595.00
2022-12-01T00:06:42.507Z,594.00
2022-12-01T00:07:12.623Z,594.00
2022-12-01T00:07:42.704Z,595.00
2022-12-01T00:08:12.725Z,593.00
2022-12-01T00:08:42.725Z,590.00
2022-12-01T00:09:18.005Z,590.00
2022-12-01T00:09:42.738Z,590.00
2022-12-01T00:10:12.710Z,591.00
2022-12-01T00:10:42.826Z,592.00
2022-12-01T00:11:12.958Z,594.00
2022-12-01T00:11:42.980Z,594.00
2022-12-01T00:12:12.968Z,595.00
2022-12-01T00:12:42.977Z,595.00
2022-12-01T00:13:12.983Z,594.00
2022-12-01T00:13:43.090Z,596.00
2022-12-01T00:14:13.097Z,597.00
2022-12-01T00:14:43.096Z,598.00
2022-12-01T00:15:13.176Z,598.00
2022-12-01T00:15:43.244Z,596.00
2022-12-01T00:16:13.450Z,595.00
2022-12-01T00:16:43.501Z,593.00
2022-12-01T00:17:13.479Z,594.00
2022-12-01T00:17:43.573Z,594.00
2022-12-01T00:18:13.656Z,597.00
2022-12-01T00:18:43.745Z,597.00
2022-12-01T00:19:13.815Z,598.00
2022-12-01T00:19:43.893Z,598.00
2022-12-01T00:20:13.976Z,597.00
2022-12-01T00:20:44.035Z,598.00
2022-12-01T00:21:14.130Z,599.00
2022-12-01T00:21:44.230Z,596.00
2022-12-01T00:22:14.305Z,598.00
2022-12-01T00:22:44.384Z,596.00
2022-12-01T00:23:14.452Z,597.00
2022-12-01T00:23:44.539Z,597.00
2022-12-01T00:24:14.614Z,596.00
2022-12-01T00:24:44.733Z,598.00
2022-12-01T00:25:14.822Z,601.00
2022-12-01T00:25:44.944Z,600.00
2022-12-01T00:26:14.987Z,601.00
2022-12-01T00:26:45.021Z,600.00
2022-12-01T00:27:15.125Z,597.00
2022-12-01T00:27:45.153Z,596.00
2022-12-01T00:28:15.242Z,597.00
2022-12-01T00:28:45.278Z,596.00
2022-12-01T00:29:15.367Z,595.00
2022-12-01T00:29:45.526Z,595.00
2022-12-01T00:30:15.539Z,594.00
2022-12-01T00:30:45.624Z,594.00
2022-12-01T00:31:15.703Z,594.00
2022-12-01T00:31:45.905Z,595.00
2022-12-01T00:32:15.983Z,595.00
2022-12-01T00:32:45.927Z,596.00
2022-12-01T00:33:16.011Z,595.00
2022-12-01T00:33:46.020Z,597.00
2022-12-01T00:34:16.097Z,595.00
2022-12-01T00:34:46.100Z,591.00
2022-12-01T00:35:16.095Z,591.00
2022-12-01T00:35:46.204Z,590.00
2022-12-01T00:36:16.349Z,591.00
2022-12-01T00:36:46.336Z,591.00
2022-12-01T00:37:16.328Z,592.00
2022-12-01T00:37:46.451Z,592.00
2022-12-01T00:38:16.442Z,594.00
2022-12-01T00:38:46.562Z,592.00
2022-12-01T00:39:16.674Z,593.00
2022-12-01T00:39:46.959Z,593.00
2022-12-01T00:40:16.843Z,594.00
2022-12-01T00:40:46.820Z,591.00
2022-12-01T00:41:16.983Z,592.00
2022-12-01T00:41:46.893Z,593.00
2022-12-01T00:42:16.917Z,593.00
2022-12-01T00:42:46.903Z,594.00
2022-12-01T00:43:16.928Z,591.00
2022-12-01T00:43:46.973Z,592.00
2022-12-01T00:44:16.946Z,594.00
2022-12-01T00:44:46.950Z,594.00
2022-12-01T00:45:17.060Z,595.00
2022-12-01T00:45:47.289Z,594.00
2022-12-01T00:46:17.265Z,596.00
2022-12-01T00:46:47.294Z,594.00
2022-12-01T00:47:17.361Z,594.00
2022-12-01T00:47:47.464Z,593.00
2022-12-01T00:48:17.587Z,592.00
2022-12-01T00:48:47.665Z,592.00
2022-12-01T00:49:17.694Z,593.00
2022-12-01T00:49:48.000Z,591.00
2022-12-01T00:50:17.736Z,591.00
2022-12-01T00:50:47.858Z,590.00
2022-12-01T00:51:17.863Z,586.00
2022-12-01T00:51:47.862Z,586.00
2022-12-01T00:52:17.852Z,586.00
2022-12-01T00:52:47.976Z,586.00
2022-12-01T00:53:17.988Z,586.00
2022-12-01T00:53:47.970Z,587.00
2022-12-01T00:54:18.088Z,586.00
2022-12-01T00:54:48.198Z,584.00
2022-12-01T00:55:18.211Z,583.00
2022-12-01T00:55:48.240Z,584.00
2022-12-01T00:56:18.259Z,584.00
2022-12-01T00:56:48.262Z,585.00
2022-12-01T00:57:18.261Z,585.00
2022-12-01T00:57:48.372Z,583.00
2022-12-01T00:58:18.533Z,584.00
2022-12-01T00:58:48.504Z,584.00
2022-12-01T00:59:18.635Z,583.00
2022-12-01T00:59:48.914Z,583.00
2022-12-01T01:00:18.757Z,582.00
2022-12-01T01:00:48.862Z,582.00
2022-12-01T01:01:18.921Z,582.00
2022-12-01T01:01:49.023Z,582.00
2022-12-01T01:02:19.145Z,580.00
2022-12-01T01:02:49.067Z,579.00
2022-12-01T01:03:19.091Z,577.00
2022-12-01T01:03:49.097Z,579.00
2022-12-01T01:04:19.080Z,579.00
2022-12-01T01:04:49.195Z,580.00
2022-12-01T01:05:19.196Z,581.00
2022-12-01T01:05:49.308Z,582.00
2022-12-01T01:06:19.446Z,584.00
2022-12-01T01:06:49.468Z,582.00
2022-12-01T01:07:19.592Z,583.00
2022-12-01T01:07:49.550Z,582.00
2022-12-01T01:08:19.546Z,582.00
2022-12-01T01:08:49.546Z,581.00
2022-12-01T01:09:19.660Z,580.00
2022-12-01T01:09:49.969Z,580.00
2022-12-01T01:10:19.669Z,579.00
2022-12-01T01:10:49.801Z,579.00
2022-12-01T01:11:19.851Z,577.00
2022-12-01T01:11:49.945Z,577.00
2022-12-01T01:12:19.945Z,578.00
2022-12-01T01:12:50.051Z,579.00
2022-12-01T01:13:20.098Z,580.00
2022-12-01T01:13:50.078Z,579.00
2022-12-01T01:14:20.121Z,580.00
2022-12-01T01:14:50.135Z,580.00
2022-12-01T01:15:20.202Z,580.00
2022-12-01T01:15:50.282Z,579.00
2022-12-01T01:16:20.423Z,579.00
2022-12-01T01:16:50.454Z,579.00
2022-12-01T01:17:20.427Z,580.00
2022-12-01T01:17:50.524Z,582.00
2022-12-01T01:18:20.606Z,583.00
2022-12-01T01:18:50.718Z,583.00
2022-12-01T01:19:20.794Z,582.00
2022-12-01T01:19:51.209Z,580.00
2022-12-01T01:20:20.989Z,580.00
2022-12-01T01:20:51.068Z,579.00
2022-12-01T01:21:21.171Z,576.00
2022-12-01T01:21:51.239Z,576.00
2022-12-01T01:22:21.324Z,577.00
2022-12-01T01:22:51.402Z,576.00
2022-12-01T01:23:21.500Z,576.00
2022-12-01T01:23:51.569Z,574.00
2022-12-01T01:24:21.676Z,572.00
2022-12-01T01:24:51.733Z,574.00
2022-12-01T01:25:21.850Z,575.00
2022-12-01T01:25:51.956Z,577.00
2022-12-01T01:26:22.081Z,579.00
2022-12-01T01:26:52.234Z,580.00
2022-12-01T01:27:22.217Z,582.00
2022-12-01T01:27:52.188Z,581.00
2022-12-01T01:28:22.326Z,581.00
2022-12-01T01:28:52.314Z,581.00
2022-12-01T01:29:22.423Z,582.00
2022-12-01T01:29:52.441Z,582.00
2022-12-01T01:30:22.498Z,583.00
2022-12-01T01:30:52.590Z,581.00
2022-12-01T01:31:22.656Z,579.00
2022-12-01T01:31:52.675Z,579.00
2022-12-01T01:32:22.686Z,579.00
2022-12-01T01:32:52.655Z,578.00
2022-12-01T01:33:22.661Z,579.00
2022-12-01T01:33:52.667Z,578.00
2022-12-01T01:34:22.778Z,579.00
2022-12-01T01:34:52.776Z,580.00
2022-12-01T01:35:22.779Z,580.00
2022-12-01T01:35:52.905Z,580.00
2022-12-01T01:36:23.008Z,580.00
2022-12-01T01:36:53.014Z,580.00
2022-12-01T01:37:23.159Z,580.00
2022-12-01T01:37:53.045Z,578.00
2022-12-01T01:38:23.144Z,580.00
2022-12-01T01:38:53.167Z,579.00
2022-12-01T01:39:23.184Z,577.00
2022-12-01T01:39:53.168Z,579.00
2022-12-01T01:40:23.162Z,578.00
2022-12-01T01:40:53.157Z,578.00
2022-12-01T01:41:23.183Z,577.00
2022-12-01T01:41:53.151Z,576.00
2022-12-01T01:42:23.189Z,578.00
2022-12-01T01:42:53.160Z,575.00
2022-12-01T01:43:23.159Z,576.00
2022-12-01T01:43:53.167Z,578.00
2022-12-01T01:44:23.276Z,577.00
2022-12-01T01:44:53.382Z,578.00
2022-12-01T01:45:23.504Z,580.00
2022-12-01T01:45:53.591Z,579.00
2022-12-01T01:46:23.658Z,577.00
2022-12-01T01:46:53.696Z,577.00
2022-12-01T01:47:23.680Z,576.00
2022-12-01T01:47:53.795Z,575.00
2022-12-01T01:48:23.897Z,574.00
2022-12-01T01:48:54.038Z,574.00
2022-12-01T01:49:24.158Z,573.00
2022-12-01T01:49:54.150Z,573.00
2022-12-01T01:50:24.144Z,573.00
2022-12-01T01:50:54.268Z,573.00
2022-12-01T01:51:24.270Z,573.00
2022-12-01T01:51:54.267Z,572.00
2022-12-01T01:52:24.313Z,573.00
2022-12-01T01:52:54.291Z,572.00
2022-12-01T01:53:24.309Z,573.00
2022-12-01T01:53:54.326Z,570.00
2022-12-01T01:54:24.332Z,570.00
2022-12-01T01:54:54.440Z,570.00
2022-12-01T01:55:24.567Z,570.00
2022-12-01T01:55:54.556Z,568.00
2022-12-01T01:56:24.676Z,568.00
2022-12-01T01:56:54.681Z,570.00
2022-12-01T01:57:24.717Z,570.00
2022-12-01T01:57:54.671Z,569.00
2022-12-01T01:58:24.786Z,569.00
2022-12-01T01:58:54.908Z,570.00
2022-12-01T01:59:25.019Z,571.00
2022-12-01T01:59:55.015Z,572.00
2022-12-01T02:00:25.032Z,571.00
2022-12-01T02:00:55.055Z,572.00
2022-12-01T02:01:25.062Z,573.00
2022-12-01T02:01:55.184Z,571.00
2022-12-01T02:02:25.238Z,571.00
2022-12-01T02:02:55.332Z,569.00
2022-12-01T02:03:25.349Z,569.00
2022-12-01T02:03:55.347Z,568.00
2022-12-01T02:04:25.352Z,567.00
2022-12-01T02:04:55.348Z,568.00
2022-12-01T02:05:25.356Z,568.00
2022-12-01T02:05:56.224Z,568.00
2022-12-01T02:06:25.403Z,569.00
2022-12-01T02:06:55.410Z,568.00
2022-12-01T02:07:25.488Z,569.00
2022-12-01T02:07:55.538Z,570.00
2022-12-01T02:08:25.541Z,571.00
2022-12-01T02:08:55.534Z,570.00
2022-12-01T02:09:25.669Z,568.00
2022-12-01T02:09:55.706Z,571.00
2022-12-01T02:10:25.698Z,571.00
2022-12-01T02:10:55.702Z,572.00
2022-12-01T02:11:25.800Z,572.00
2022-12-01T02:11:55.926Z,572.00
2022-12-01T02:12:25.943Z,570.00
2022-12-01T02:12:55.957Z,571.00
2022-12-01T02:13:25.936Z,571.00
2022-12-01T02:13:56.066Z,570.00
2022-12-01T02:14:26.036Z,570.00
2022-12-01T02:14:56.136Z,570.00
2022-12-01T02:15:26.228Z,570.00
2022-12-01T02:15:56.311Z,568.00
2022-12-01T02:16:26.418Z,569.00
2022-12-01T02:16:56.449Z,570.00
2022-12-01T02:17:26.423Z,569.00
2022-12-01T02:17:56.504Z,568.00
2022-12-01T02:18:26.583Z,569.00
2022-12-01T02:18:56.653Z,570.00
2022-12-01T02:19:26.745Z,567.00
2022-12-01T02:19:56.886Z,568.00
2022-12-01T02:20:26.931Z,565.00
2022-12-01T02:20:57.004Z,565.00
2022-12-01T02:21:27.108Z,565.00
2022-12-01T02:21:57.109Z,566.00
2022-12-01T02:22:27.204Z,565.00
2022-12-01T02:22:57.284Z,565.00
2022-12-01T02:23:27.381Z,563.00
2022-12-01T02:23:57.461Z,563.00
2022-12-01T02:24:27.545Z,563.00
2022-12-01T02:24:57.691Z,561.00
2022-12-01T02:25:27.665Z,562.00
2022-12-01T02:25:57.705Z,563.00
2022-12-01T02:26:27.690Z,563.00
2022-12-01T02:26:57.704Z,564.00
2022-12-01T02:27:27.726Z,564.00
2022-12-01T02:27:57.730Z,565.00
2022-12-01T02:28:27.739Z,563.00
2022-12-01T02:28:57.719Z,563.00
2022-12-01T02:29:27.705Z,561.00
2022-12-01T02:29:57.826Z,562.00
2022-12-01T02:30:27.884Z,561.00
2022-12-01T02:30:57.938Z,561.00
2022-12-01T02:31:27.917Z,562.00
2022-12-01T02:31:58.059Z,563.00
2022-12-01T02:32:28.058Z,564.00
2022-12-01T02:32:58.067Z,564.00
2022-12-01T02:33:28.065Z,565.00
2022-12-01T02:33:58.072Z,567.00
2022-12-01T02:34:28.065Z,567.00
2022-12-01T02:34:58.069Z,567.00
2022-12-01T02:35:28.063Z,566.00
2022-12-01T02:35:58.095Z,567.00
2022-12-01T02:36:28.084Z,568.00
2022-12-01T02:36:58.083Z,567.00
2022-12-01T02:37:28.079Z,568.00
2022-12-01T02:37:58.190Z,567.00
2022-12-01T02:38:28.195Z,566.00
2022-12-01T02:38:58.197Z,566.00
2022-12-01T02:39:28.199Z,564.00
2022-12-01T02:39:58.203Z,564.00
2022-12-01T02:40:28.193Z,563.00
2022-12-01T02:40:58.190Z,562.00
2022-12-01T02:41:28.313Z,561.00
2022-12-01T02:41:58.428Z,561.00
2022-12-01T02:42:28.559Z,560.00
2022-12-01T02:42:58.560Z,560.00
2022-12-01T02:43:28.583Z,560.00
2022-12-01T02:43:58.607Z,559.00
2022-12-01T02:44:28.614Z,560.00
2022-12-01T02:44:58.626Z,562.00
2022-12-01T02:45:28.646Z,561.00
2022-12-01T02:45:58.721Z,559.00
2022-12-01T02:46:28.745Z,560.00
2022-12-01T02:46:58.739Z,560.00
2022-12-01T02:47:28.969Z,559.00
2022-12-01T02:47:58.828Z,560.00
2022-12-01T02:48:28.944Z,563.00
2022-12-01T02:48:58.943Z,563.00
2022-12-01T02:49:29.051Z,564.00
2022-12-01T02:49:59.159Z,562.00
2022-12-01T02:50:29.291Z,563.00
2022-12-01T02:50:59.291Z,564.00
2022-12-01T02:51:29.280Z,564.00
2022-12-01T02:51:59.387Z,565.00
2022-12-01T02:52:29.528Z,564.00
2022-12-01T02:52:59.526Z,564.00
2022-12-01T02:53:29.513Z,563.00
2022-12-01T02:53:59.629Z,563.00
2022-12-01T02:54:29.736Z,562.00
2022-12-01T02:54:59.869Z,562.00
2022-12-01T02:55:29.852Z,560.00
2022-12-01T02:55:59.848Z,560.00
2022-12-01T02:56:29.996Z,561.00
2022-12-01T02:57:00.040Z,561.00
2022-12-01T02:57:30.086Z,561.00
2022-12-01T02:58:00.179Z,559.00
2022-12-01T02:58:30.244Z,559.00
2022-12-01T02:59:00.238Z,561.00
2022-12-01T02:59:30.293Z,563.00
2022-12-01T03:00:00.299Z,565.00
2022-12-01T03:00:30.341Z,563.00
2022-12-01T03:01:00.411Z,564.00
2022-12-01T03:01:30.480Z,562.00
2022-12-01T03:02:00.566Z,562.00
2022-12-01T03:02:30.654Z,563.00
2022-12-01T03:03:00.603Z,563.00
2022-12-01T03:03:30.612Z,565.00
2022-12-01T03:04:00.625Z,565.00
2022-12-01T03:04:30.700Z,565.00
2022-12-01T03:05:00.791Z,563.00
2022-12-01T03:05:30.849Z,564.00
2022-12-01T03:06:00.843Z,562.00
2022-12-01T03:06:30.893Z,564.00
2022-12-01T03:07:00.925Z,563.00
2022-12-01T03:07:30.977Z,562.00
2022-12-01T03:08:01.131Z,562.00
2022-12-01T03:08:30.996Z,562.00
2022-12-01T03:09:01.077Z,563.00
2022-12-01T03:09:31.066Z,563.00
2022-12-01T03:10:01.116Z,563.00
2022-12-01T03:10:31.098Z,562.00
2022-12-01T03:11:01.217Z,562.00
2022-12-01T03:11:31.220Z,563.00
2022-12-01T03:12:01.224Z,563.00
2022-12-01T03:12:31.341Z,564.00
2022-12-01T03:13:01.338Z,564.00
2022-12-01T03:13:31.351Z,563.00
2022-12-01T03:14:01.457Z,563.00
2022-12-01T03:14:31.596Z,562.00
2022-12-01T03:15:01.685Z,562.00
2022-12-01T03:15:31.739Z,563.00
2022-12-01T03:16:01.915Z,565.00
2022-12-01T03:16:32.047Z,564.00
2022-12-01T03:17:01.995Z,566.00
2022-12-01T03:17:32.061Z,565.00
2022-12-01T03:18:02.141Z,565.00
2022-12-01T03:18:32.238Z,566.00
2022-12-01T03:19:02.310Z,567.00
2022-12-01T03:19:32.397Z,566.00
2022-12-01T03:20:02.474Z,567.00
2022-12-01T03:20:32.543Z,565.00
2022-12-01T03:21:02.627Z,565.00
2022-12-01T03:21:32.729Z,567.00
2022-12-01T03:22:02.781Z,568.00
2022-12-01T03:22:32.894Z,569.00
2022-12-01T03:23:02.962Z,567.00
2022-12-01T03:23:33.058Z,566.00
2022-12-01T03:24:03.140Z,566.00
2022-12-01T03:24:33.222Z,567.00
2022-12-01T03:25:03.360Z,568.00
2022-12-01T03:25:33.347Z,569.00
2022-12-01T03:26:03.460Z,568.00
2022-12-01T03:26:33.571Z,567.00
2022-12-01T03:27:03.684Z,569.00
2022-12-01T03:27:33.712Z,570.00
2022-12-01T03:28:23.219Z,571.00
2022-12-01T03:28:33.739Z,571.00
2022-12-01T03:29:03.797Z,572.00
2022-12-01T03:29:33.781Z,572.00
2022-12-01T03:30:03.921Z,573.00
2022-12-01T03:30:33.891Z,575.00
2022-12-01T03:31:04.104Z,574.00
2022-12-01T03:31:34.276Z,573.00
2022-12-01T03:32:04.175Z,572.00
2022-12-01T03:32:34.189Z,572.00
2022-12-01T03:33:04.181Z,570.00
2022-12-01T03:33:34.304Z,569.00
2022-12-01T03:34:04.310Z,571.00
2022-12-01T03:34:34.319Z,570.00
2022-12-01T03:35:04.319Z,569.00
2022-12-01T03:35:34.395Z,568.00
2022-12-01T03:36:04.411Z,566.00
2022-12-01T03:36:34.543Z,566.00
2022-12-01T03:37:04.534Z,565.00
2022-12-01T03:37:34.535Z,565.00
2022-12-01T03:38:04.539Z,563.00
2022-12-01T03:38:34.533Z,564.00
2022-12-01T03:39:04.655Z,563.00
2022-12-01T03:39:34.656Z,561.00
2022-12-01T03:40:04.760Z,562.00
2022-12-01T03:40:34.772Z,563.00
2022-12-01T03:41:04.763Z,564.00
2022-12-01T03:41:34.766Z,565.00
2022-12-01T03:42:04.768Z,565.00
2022-12-01T03:42:34.774Z,565.00
2022-12-01T03:43:04.777Z,563.00
2022-12-01T03:43:34.772Z,563.00
2022-12-01T03:44:04.881Z,562.00
2022-12-01T03:44:34.994Z,560.00
2022-12-01T03:45:05.128Z,561.00
2022-12-01T03:45:35.138Z,562.00
2022-12-01T03:46:05.169Z,559.00
2022-12-01T03:46:35.252Z,560.00
2022-12-01T03:47:05.264Z,562.00
2022-12-01T03:47:35.287Z,561.00
2022-12-01T03:48:05.305Z,561.00
2022-12-01T03:48:35.327Z,561.00
2022-12-01T03:49:05.307Z,563.00
2022-12-01T03:49:35.339Z,562.00
2022-12-01T03:50:05.338Z,563.00
2022-12-01T03:50:35.321Z,563.00
2022-12-01T03:51:05.429Z,563.00
2022-12-01T03:51:35.448Z,565.00
2022-12-01T03:52:05.563Z,567.00
2022-12-01T03:52:35.663Z,567.00
2022-12-01T03:53:05.785Z,567.00
2022-12-01T03:53:35.780Z,566.00
2022-12-01T03:54:05.892Z,565.00
2022-12-01T03:54:36.037Z,562.00
2022-12-01T03:55:06.025Z,560.00
2022-12-01T03:55:36.045Z,560.00
2022-12-01T03:56:06.033Z,560.00
2022-12-01T03:56:36.142Z,558.00
2022-12-01T03:57:06.286Z,558.00
2022-12-01T03:57:36.269Z,558.00
2022-12-01T03:58:06.403Z,558.00
2022-12-01T03:58:36.455Z,559.00
2022-12-01T03:59:06.457Z,559.00
2022-12-01T03:59:36.578Z,558.00
2022-12-01T04:00:06.588Z,558.00
2022-12-01T04:00:36.587Z,559.00
2022-12-01T04:01:06.621Z,559.00
2022-12-01T04:01:36.681Z,559.00
2022-12-01T04:02:06.760Z,558.00
2022-12-01T04:02:36.789Z,557.00
2022-12-01T04:03:06.820Z,559.00
2022-12-01T04:03:36.809Z,558.00
2022-12-01T04:04:06.809Z,557.00
2022-12-01T04:04:36.924Z,557.00
2022-12-01T04:05:07.046Z,555.00
2022-12-01T04:05:37.030Z,555.00
2022-12-01T04:06:07.157Z,555.00
2022-12-01T04:06:37.174Z,556.00
2022-12-01T04:07:07.150Z,557.00
2022-12-01T04:07:37.418Z,556.00
2022-12-01T04:08:07.377Z,555.00
2022-12-01T04:08:37.424Z,555.00
2022-12-01T04:09:07.408Z,554.00
2022-12-01T04:09:37.528Z,555.00
2022-12-01T04:10:07.643Z,555.00
2022-12-01T04:10:37.761Z,555.00
2022-12-01T04:11:07.869Z,556.00
2022-12-01T04:11:37.991Z,557.00
2022-12-01T04:12:07.981Z,559.00
2022-12-01T04:12:38.099Z,561.00
2022-12-01T04:13:08.240Z,562.00
2022-12-01T04:13:38.254Z,561.00
2022-12-01T04:14:08.256Z,561.00
2022-12-01T04:14:38.243Z,564.00
2022-12-01T04:15:08.316Z,561.00
2022-12-01T04:15:38.422Z,560.00
2022-12-01T04:16:08.589Z,558.00
2022-12-01T04:16:38.562Z,556.00
2022-12-01T04:17:08.652Z,557.00
2022-12-01T04:17:38.730Z,556.00
2022-12-01T04:18:08.813Z,558.00
2022-12-01T04:18:38.918Z,558.00
2022-12-01T04:19:09.007Z,558.00
2022-12-01T04:19:39.126Z,558.00
2022-12-01T04:20:09.192Z,557.00
2022-12-01T04:20:39.272Z,557.00
2022-12-01T04:21:09.354Z,557.00
2022-12-01T04:21:39.467Z,556.00
2022-12-01T04:22:09.548Z,558.00
2022-12-01T04:22:39.642Z,560.00
2022-12-01T04:23:09.728Z,560.00
2022-12-01T04:23:39.810Z,560.00
2022-12-01T04:24:09.891Z,559.00
2022-12-01T04:24:39.966Z,559.00
2022-12-01T04:25:10.079Z,559.00
2022-12-01T04:25:40.129Z,557.00
2022-12-01T04:26:15.611Z,557.00
2022-12-01T04:26:40.153Z,560.00
2022-12-01T04:27:10.177Z,558.00
2022-12-01T04:27:40.142Z,557.00
2022-12-01T04:28:10.169Z,557.00
2022-12-01T04:28:40.190Z,556.00
2022-12-01T04:29:10.179Z,556.00
2022-12-01T04:29:40.320Z,554.00
2022-12-01T04:30:10.309Z,557.00
2022-12-01T04:30:40.424Z,556.00
2022-12-01T04:31:10.577Z,558.00
2022-12-01T04:31:40.662Z,559.00
2022-12-01T04:32:10.685Z,558.00
2022-12-01T04:32:40.797Z,558.00
2022-12-01T04:33:10.905Z,558.00
2022-12-01T04:33:41.040Z,559.00
2022-12-01T04:34:11.034Z,557.00
2022-12-01T04:34:41.033Z,558.00
2022-12-01T04:35:11.037Z,557.00
2022-12-01T04:35:41.152Z,558.00
2022-12-01T04:36:11.161Z,559.00
2022-12-01T04:36:41.159Z,559.00
2022-12-01T04:37:11.299Z,562.00
2022-12-01T04:37:41.288Z,563.00
2022-12-01T04:38:11.306Z,561.00
2022-12-01T04:38:41.324Z,561.00
2022-12-01T04:39:11.307Z,561.00
2022-12-01T04:39:41.420Z,558.00
2022-12-01T04:40:11.544Z,558.00
2022-12-01T04:40:41.530Z,558.00
2022-12-01T04:41:11.654Z,556.00
2022-12-01T04:41:41.705Z,556.00
2022-12-01T04:42:11.701Z,556.00
2022-12-01T04:42:41.818Z,553.00
2022-12-01T04:43:11.824Z,552.00
2022-12-01T04:43:41.823Z,552.00
2022-12-01T04:44:11.808Z,553.00
2022-12-01T04:44:41.925Z,553.00
2022-12-01T04:45:12.049Z,553.00
2022-12-01T04:45:42.043Z,556.00
2022-12-01T04:46:12.209Z,556.00
2022-12-01T04:46:42.288Z,556.00
2022-12-01T04:47:12.321Z,557.00
2022-12-01T04:47:42.418Z,556.00
2022-12-01T04:48:12.533Z,557.00
2022-12-01T04:48:42.662Z,557.00
2022-12-01T04:49:12.645Z,558.00
2022-12-01T04:49:42.705Z,556.00
2022-12-01T04:50:12.797Z,556.00
2022-12-01T04:50:42.761Z,558.00
2022-12-01T04:51:12.763Z,558.00
2022-12-01T04:51:42.878Z,559.00
2022-12-01T04:52:12.883Z,560.00
2022-12-01T04:52:42.992Z,562.00
2022-12-01T04:53:13.121Z,574.00
2022-12-01T04:53:43.125Z,583.00
2022-12-01T04:54:13.252Z,589.00
2022-12-01T04:54:43.269Z,593.00
2022-12-01T04:55:13.257Z,601.00
2022-12-01T04:55:43.263Z,638.00
2022-12-01T04:56:13.395Z,642.00
2022-12-01T04:56:43.378Z,638.00
2022-12-01T04:57:13.545Z,636.00
2022-12-01T04:57:43.564Z,635.00
2022-12-01T04:58:13.555Z,637.00
2022-12-01T04:58:43.572Z,642.00
2022-12-01T04:59:13.577Z,643.00
2022-12-01T04:59:43.575Z,641.00
2022-12-01T05:00:13.560Z,640.00
2022-12-01T05:00:43.769Z,637.00
2022-12-01T05:01:13.892Z,634.00
2022-12-01T05:01:43.811Z,626.00
2022-12-01T05:02:13.868Z,622.00
2022-12-01T05:02:43.833Z,621.00
2022-12-01T05:03:15.294Z,616.00
2022-12-01T05:03:43.891Z,614.00
2022-12-01T05:04:14.006Z,611.00
2022-12-01T05:04:43.994Z,612.00
2022-12-01T05:05:14.004Z,615.00
2022-12-01T05:05:43.988Z,615.00
2022-12-01T05:06:14.105Z,615.00
2022-12-01T05:06:44.219Z,617.00
2022-12-01T05:07:14.356Z,620.00
2022-12-01T05:07:44.494Z,618.00
2022-12-01T05:08:14.432Z,619.00
2022-12-01T05:08:44.434Z,619.00
2022-12-01T05:09:17.527Z,617.00
2022-12-01T05:09:44.526Z,616.00
2022-12-01T05:10:14.506Z,614.00
2022-12-01T05:10:44.627Z,613.00
2022-12-01T05:11:14.633Z,613.00
2022-12-01T05:11:44.620Z,613.00
2022-12-01T05:12:14.723Z,613.00
2022-12-01T05:12:44.887Z,612.00
2022-12-01T05:13:14.875Z,610.00
2022-12-01T05:13:45.033Z,607.00
2022-12-01T05:14:15.028Z,606.00
2022-12-01T05:14:45.031Z,605.00
2022-12-01T05:15:15.026Z,605.00
2022-12-01T05:15:45.035Z,605.00
2022-12-01T05:16:15.262Z,605.00
2022-12-01T05:16:45.296Z,604.00
2022-12-01T05:17:15.265Z,603.00
2022-12-01T05:17:45.360Z,603.00
2022-12-01T05:18:15.426Z,601.00
2022-12-01T05:18:45.492Z,602.00
2022-12-01T05:19:15.531Z,603.00
2022-12-01T05:19:45.565Z,604.00
2022-12-01T05:20:15.578Z,604.00
2022-12-01T05:20:45.577Z,603.00
2022-12-01T05:21:15.686Z,605.00
2022-12-01T05:21:45.825Z,605.00
2022-12-01T05:22:15.862Z,606.00
2022-12-01T05:23:04.896Z,607.00
2022-12-01T05:23:17.196Z,610.00
2022-12-01T05:23:45.916Z,616.00
2022-12-01T05:24:15.977Z,613.00
2022-12-01T05:24:46.012Z,610.00
2022-12-01T05:25:16.103Z,611.00
2022-12-01T05:25:46.133Z,611.00
2022-12-01T05:26:16.164Z,614.00
2022-12-01T05:26:46.194Z,623.00
2022-12-01T05:27:16.231Z,628.00
2022-12-01T05:27:46.274Z,629.00
2022-12-01T05:28:16.301Z,631.00
2022-12-01T05:28:46.337Z,633.00
2022-12-01T05:29:16.366Z,636.00
2022-12-01T05:29:46.731Z,637.00
2022-12-01T05:30:16.512Z,637.00
2022-12-01T05:30:46.569Z,638.00
2022-12-01T05:31:16.691Z,634.00
2022-12-01T05:31:46.786Z,634.00
2022-12-01T05:32:16.720Z,634.00
2022-12-01T05:32:46.759Z,630.00
2022-12-01T05:33:16.814Z,628.00
2022-12-01T05:33:46.967Z,627.00
2022-12-01T05:34:16.838Z,627.00
2022-12-01T05:34:46.883Z,627.00
2022-12-01T05:35:16.938Z,626.00
2022-12-01T05:35:46.968Z,625.00
2022-12-01T05:36:17.032Z,624.00
2022-12-01T05:36:47.065Z,622.00
2022-12-01T05:37:17.097Z,622.00
2022-12-01T05:37:47.140Z,623.00
2022-12-01T05:38:17.167Z,624.00
2022-12-01T05:38:47.198Z,624.00
2022-12-01T05:39:17.271Z,625.00
2022-12-01T05:39:47.783Z,630.00
2022-12-01T05:40:17.293Z,633.00
2022-12-01T05:40:47.338Z,633.00
2022-12-01T05:41:17.429Z,630.00
2022-12-01T05:41:47.449Z,624.00
2022-12-01T05:42:17.490Z,622.00
2022-12-01T05:42:47.505Z,622.00
2022-12-01T05:43:17.550Z,624.00
2022-12-01T05:43:47.622Z,623.00
2022-12-01T05:44:17.680Z,626.00
2022-12-01T05:44:47.712Z,625.00
2022-12-01T05:45:17.749Z,626.00
2022-12-01T05:45:47.845Z,629.00
2022-12-01T05:46:17.969Z,630.00
2022-12-01T05:46:47.906Z,633.00
2022-12-01T05:47:17.929Z,632.00
2022-12-01T05:47:47.977Z,633.00
2022-12-01T05:48:18.009Z,636.00
2022-12-01T05:48:48.046Z,635.00
2022-12-01T05:49:18.112Z,635.00
2022-12-01T05:49:48.444Z,635.00
2022-12-01T05:50:18.207Z,633.00
2022-12-01T05:50:48.260Z,634.00
2022-12-01T05:51:18.289Z,634.00
2022-12-01T05:51:48.363Z,630.00
2022-12-01T05:52:18.413Z,630.00
2022-12-01T05:52:48.443Z,631.00
2022-12-01T05:53:18.478Z,631.00
2022-12-01T05:53:48.509Z,632.00
2022-12-01T05:54:18.572Z,633.00
2022-12-01T05:54:48.604Z,632.00
2022-12-01T05:55:18.629Z,632.00
2022-12-01T05:55:48.657Z,633.00
2022-12-01T05:56:18.727Z,635.00
2022-12-01T05:56:48.763Z,636.00
2022-12-01T05:57:18.797Z,637.00
2022-12-01T05:57:48.849Z,639.00
2022-12-01T05:58:18.873Z,640.00
2022-12-01T05:58:48.903Z,646.00
2022-12-01T05:59:18.953Z,643.00
2022-12-01T05:59:49.241Z,642.00
2022-12-01T06:00:19.003Z,641.00
2022-12-01T06:00:49.032Z,642.00
2022-12-01T06:01:19.061Z,640.00
2022-12-01T06:01:49.126Z,641.00
2022-12-01T06:02:19.187Z,643.00
2022-12-01T06:02:49.241Z,643.00
2022-12-01T06:03:19.287Z,643.00
2022-12-01T06:03:49.383Z,646.00
2022-12-01T06:04:19.561Z,647.00
2022-12-01T06:04:49.467Z,647.00
2022-12-01T06:05:19.515Z,649.00
2022-12-01T06:05:49.561Z,647.00
2022-12-01T06:06:19.597Z,644.00
2022-12-01T06:06:49.640Z,643.00
2022-12-01T06:07:19.706Z,643.00
2022-12-01T06:07:49.863Z,644.00
2022-12-01T06:08:19.788Z,645.00
2022-12-01T06:08:49.832Z,645.00
2022-12-01T06:09:19.859Z,646.00
2022-12-01T06:09:50.232Z,648.00
2022-12-01T06:10:19.903Z,647.00
2022-12-01T06:10:49.959Z,649.00
2022-12-01T06:11:20.001Z,648.00
2022-12-01T06:11:52.521Z,649.00
2022-12-01T06:12:20.131Z,648.00
2022-12-01T06:12:50.189Z,648.00
2022-12-01T06:13:20.229Z,646.00
2022-12-01T06:13:50.296Z,644.00
2022-12-01T06:14:20.354Z,641.00
2022-12-01T06:14:50.394Z,639.00